Terminal Aerodrome Forecast
Issued by NWS Charleston, WV

Current Version | Previous Version | Graphics & Text | Print | Product List | Glossary On
Versions: 1 2 3 4 5 6 7 8 9 10 11 12 13 14 15 16 17 18 19 20 21 22 23 24 25 26 27 28 29 30
000
FTUS41 KRLX 010234 AAA
TAFEKN
TAF AMD
KEKN 010234Z 0103/0124 26006KT 6SM SHRA BR OVC035
     FM010600 VRB03KT 1SM BR BKN002
     FM011200 VRB03KT 3SM BR BKN025
     FM011300 25005KT P6SM BKN020
     FM011600 27007KT P6SM SCT025=

USA.gov is the U.S. government's official web portal to all federal, state and local government web resources and services.